sensor_id;sensor_type;location;lat;lon;timestamp;pressure;altitude;pressure_sealevel;temperature
65180;BMP280;51849;47.476;8.084;2022-09-29T00:00:14;95015.09;;;9.97
65180;BMP280;51849;47.476;8.084;2022-09-29T00:02:40;95017.97;;;9.93
65180;BMP280;51849;47.476;8.084;2022-09-29T00:05:06;95016.75;;;9.81
65180;BMP280;51849;47.476;8.084;2022-09-29T00:07:31;95024.28;;;9.84
65180;BMP280;51849;47.476;8.084;2022-09-29T00:09:57;95030.19;;;9.85
65180;BMP280;51849;47.476;8.084;2022-09-29T00:12:23;95024.41;;;9.92
65180;BMP280;51849;47.476;8.084;2022-09-29T00:14:50;95030.28;;;9.93
65180;BMP280;51849;47.476;8.084;2022-09-29T00:17:15;95019.97;;;9.87
65180;BMP280;51849;47.476;8.084;2022-09-29T00:19:41;95022.03;;;9.75
65180;BMP280;51849;47.476;8.084;2022-09-29T00:22:07;95017.75;;;9.78
65180;BMP280;51849;47.476;8.084;2022-09-29T00:24:33;95009.06;;;9.89
65180;BMP280;51849;47.476;8.084;2022-09-29T00:27:00;95012.38;;;9.89
65180;BMP280;51849;47.476;8.084;2022-09-29T00:29:26;95000.53;;;9.88
65180;BMP280;51849;47.476;8.084;2022-09-29T00:31:51;94999.56;;;9.91
65180;BMP280;51849;47.476;8.084;2022-09-29T00:34:17;94997.47;;;9.90
65180;BMP280;51849;47.476;8.084;2022-09-29T00:36:43;95001.63;;;9.79
65180;BMP280;51849;47.476;8.084;2022-09-29T00:39:09;95000.91;;;9.79
65180;BMP280;51849;47.476;8.084;2022-09-29T00:41:39;95006.84;;;9.79
65180;BMP280;51849;47.476;8.084;2022-09-29T00:47:13;95003.06;;;9.80
65180;BMP280;51849;47.476;8.084;2022-09-29T00:49:51;94993.94;;;9.74
65180;BMP280;51849;47.476;8.084;2022-09-29T00:52:34;94991.31;;;9.74
65180;BMP280;51849;47.476;8.084;2022-09-29T00:55:09;95002.84;;;9.78
65180;BMP280;51849;47.476;8.084;2022-09-29T00:57:48;95000.22;;;9.78
65180;BMP280;51849;47.476;8.084;2022-09-29T01:00:15;95008.16;;;9.86
65180;BMP280;51849;47.476;8.084;2022-09-29T01:02:51;94988.53;;;9.85
65180;BMP280;51849;47.476;8.084;2022-09-29T01:05:23;94992.47;;;9.92
65180;BMP280;51849;47.476;8.084;2022-09-29T01:07:51;94989.16;;;9.91
65180;BMP280;51849;47.476;8.084;2022-09-29T01:10:17;94986.72;;;9.93
65180;BMP280;51849;47.476;8.084;2022-09-29T01:12:44;94985.34;;;9.92
65180;BMP280;51849;47.476;8.084;2022-09-29T01:15:13;94985.34;;;9.92
65180;BMP280;51849;47.476;8.084;2022-09-29T01:17:40;94981.84;;;9.90
65180;BMP280;51849;47.476;8.084;2022-09-29T01:20:15;94985.94;;;9.85
65180;BMP280;51849;47.476;8.084;2022-09-29T01:28:47;94980.56;;;9.96
65180;BMP280;51849;47.476;8.084;2022-09-29T01:34:27;94980.25;;;10.00
65180;BMP280;51849;47.476;8.084;2022-09-29T01:39:39;94974.81;;;9.84
65180;BMP280;51849;47.476;8.084;2022-09-29T01:42:11;94968.00;;;9.81
65180;BMP280;51849;47.476;8.084;2022-09-29T01:44:48;94964.22;;;9.82
65180;BMP280;51849;47.476;8.084;2022-09-29T01:47:33;94962.09;;;9.81
65180;BMP280;51849;47.476;8.084;2022-09-29T01:50:03;94971.13;;;9.93
65180;BMP280;51849;47.476;8.084;2022-09-29T01:52:40;94971.44;;;9.90
65180;BMP280;51849;47.476;8.084;2022-09-29T01:55:09;94957.28;;;9.85
65180;BMP280;51849;47.476;8.084;2022-09-29T01:57:56;94962.72;;;9.87
65180;BMP280;51849;47.476;8.084;2022-09-29T02:00:23;94970.13;;;9.83
65180;BMP280;51849;47.476;8.084;2022-09-29T02:02:57;94965.56;;;9.83
65180;BMP280;51849;47.476;8.084;2022-09-29T02:05:52;94961.06;;;9.84
65180;BMP280;51849;47.476;8.084;2022-09-29T02:11:00;94972.13;;;9.90
65180;BMP280;51849;47.476;8.084;2022-09-29T02:13:39;94969.50;;;9.90
65180;BMP280;51849;47.476;8.084;2022-09-29T02:16:10;94965.78;;;9.85
65180;BMP280;51849;47.476;8.084;2022-09-29T02:18:42;94963.41;;;9.88
65180;BMP280;51849;47.476;8.084;2022-09-29T02:21:08;94961.69;;;9.90
65180;BMP280;51849;47.476;8.084;2022-09-29T02:23:34;94953.69;;;9.88
65180;BMP280;51849;47.476;8.084;2022-09-29T02:26:01;94950.28;;;9.80
65180;BMP280;51849;47.476;8.084;2022-09-29T02:28:27;94955.69;;;9.82
65180;BMP280;51849;47.476;8.084;2022-09-29T02:30:53;94956.41;;;9.82
65180;BMP280;51849;47.476;8.084;2022-09-29T02:33:20;94956.88;;;9.81
65180;BMP280;51849;47.476;8.084;2022-09-29T02:36:13;94955.47;;;9.80
65180;BMP280;51849;47.476;8.084;2022-09-29T02:39:00;94952.88;;;9.80
65180;BMP280;51849;47.476;8.084;2022-09-29T02:52:39;94947.28;;;9.89
65180;BMP280;51849;47.476;8.084;2022-09-29T02:58:26;94933.06;;;9.90
65180;BMP280;51849;47.476;8.084;2022-09-29T03:00:57;94944.19;;;9.91
65180;BMP280;51849;47.476;8.084;2022-09-29T03:03:23;94943.47;;;9.90
65180;BMP280;51849;47.476;8.084;2022-09-29T03:05:49;94935.88;;;9.92
65180;BMP280;51849;47.476;8.084;2022-09-29T03:08:15;94937.78;;;9.92
65180;BMP280;51849;47.476;8.084;2022-09-29T03:10:40;94934.88;;;9.82
65180;BMP280;51849;47.476;8.084;2022-09-29T03:13:06;94930.63;;;9.79
65180;BMP280;51849;47.476;8.084;2022-09-29T03:15:32;94927.81;;;9.77
65180;BMP280;51849;47.476;8.084;2022-09-29T03:17:58;94926.53;;;9.83
65180;BMP280;51849;47.476;8.084;2022-09-29T03:20:23;94925.44;;;9.79
65180;BMP280;51849;47.476;8.084;2022-09-29T03:22:55;94921.97;;;9.58
65180;BMP280;51849;47.476;8.084;2022-09-29T03:25:23;94924.78;;;9.47
65180;BMP280;51849;47.476;8.084;2022-09-29T03:27:49;94918.94;;;9.41
65180;BMP280;51849;47.476;8.084;2022-09-29T03:30:16;94921.19;;;9.50
65180;BMP280;51849;47.476;8.084;2022-09-29T03:32:42;94921.03;;;9.42
65180;BMP280;51849;47.476;8.084;2022-09-29T03:35:09;94920.53;;;9.44
65180;BMP280;51849;47.476;8.084;2022-09-29T03:37:34;94914.56;;;9.49
65180;BMP280;51849;47.476;8.084;2022-09-29T03:40:01;94917.78;;;9.55
65180;BMP280;51849;47.476;8.084;2022-09-29T03:42:27;94925.13;;;9.56
65180;BMP280;51849;47.476;8.084;2022-09-29T03:44:53;94921.44;;;9.65
65180;BMP280;51849;47.476;8.084;2022-09-29T03:47:21;94912.88;;;9.51
65180;BMP280;51849;47.476;8.084;2022-09-29T03:49:47;94913.56;;;9.52
65180;BMP280;51849;47.476;8.084;2022-09-29T03:52:12;94926.22;;;9.61
65180;BMP280;51849;47.476;8.084;2022-09-29T03:54:38;94925.22;;;9.64
65180;BMP280;51849;47.476;8.084;2022-09-29T03:57:04;94929.03;;;9.76
65180;BMP280;51849;47.476;8.084;2022-09-29T03:59:29;94933.63;;;9.70
65180;BMP280;51849;47.476;8.084;2022-09-29T04:01:55;94937.84;;;9.73
65180;BMP280;51849;47.476;8.084;2022-09-29T04:04:21;94938.81;;;9.70
65180;BMP280;51849;47.476;8.084;2022-09-29T04:06:46;94939.63;;;9.65
65180;BMP280;51849;47.476;8.084;2022-09-29T04:09:12;94943.81;;;9.55
65180;BMP280;51849;47.476;8.084;2022-09-29T04:11:38;94940.50;;;9.54
65180;BMP280;51849;47.476;8.084;2022-09-29T04:14:04;94948.22;;;9.60
65180;BMP280;51849;47.476;8.084;2022-09-29T04:16:30;94947.44;;;9.65
65180;BMP280;51849;47.476;8.084;2022-09-29T04:18:55;94950.25;;;9.67
65180;BMP280;51849;47.476;8.084;2022-09-29T04:21:21;94947.13;;;9.68
65180;BMP280;51849;47.476;8.084;2022-09-29T04:23:47;94945.06;;;9.93
65180;BMP280;51849;47.476;8.084;2022-09-29T04:26:12;94946.41;;;10.00
65180;BMP280;51849;47.476;8.084;2022-09-29T04:28:38;94954.50;;;9.96
65180;BMP280;51849;47.476;8.084;2022-09-29T04:31:04;94953.00;;;9.88
65180;BMP280;51849;47.476;8.084;2022-09-29T04:33:30;94951.91;;;9.83
65180;BMP280;51849;47.476;8.084;2022-09-29T04:35:57;94944.47;;;9.74
65180;BMP280;51849;47.476;8.084;2022-09-29T04:38:23;94947.97;;;9.76
65180;BMP280;51849;47.476;8.084;2022-09-29T04:40:49;94943.06;;;9.73
65180;BMP280;51849;47.476;8.084;2022-09-29T04:43:15;94947.53;;;9.72
65180;BMP280;51849;47.476;8.084;2022-09-29T04:45:41;94943.56;;;9.71
65180;BMP280;51849;47.476;8.084;2022-09-29T04:48:07;94945.16;;;9.74
65180;BMP280;51849;47.476;8.084;2022-09-29T04:50:33;94953.84;;;9.64
65180;BMP280;51849;47.476;8.084;2022-09-29T04:52:59;94946.03;;;9.64
65180;BMP280;51849;47.476;8.084;2022-09-29T04:55:25;94954.94;;;9.68
65180;BMP280;51849;47.476;8.084;2022-09-29T04:57:50;94953.38;;;9.65
65180;BMP280;51849;47.476;8.084;2022-09-29T05:00:16;94951.63;;;9.68
65180;BMP280;51849;47.476;8.084;2022-09-29T05:02:42;94946.41;;;9.55
65180;BMP280;51849;47.476;8.084;2022-09-29T05:05:08;94952.41;;;9.50
65180;BMP280;51849;47.476;8.084;2022-09-29T05:07:35;94952.06;;;9.40
65180;BMP280;51849;47.476;8.084;2022-09-29T05:10:03;94958.75;;;9.36
65180;BMP280;51849;47.476;8.084;2022-09-29T05:12:29;94956.91;;;9.31
65180;BMP280;51849;47.476;8.084;2022-09-29T05:14:54;94961.72;;;9.27
65180;BMP280;51849;47.476;8.084;2022-09-29T05:17:20;94962.66;;;9.42
65180;BMP280;51849;47.476;8.084;2022-09-29T05:19:46;94971.56;;;9.34
65180;BMP280;51849;47.476;8.084;2022-09-29T05:22:11;94968.44;;;9.35
65180;BMP280;51849;47.476;8.084;2022-09-29T05:24:37;94970.97;;;9.41
65180;BMP280;51849;47.476;8.084;2022-09-29T05:27:03;94973.00;;;9.48
65180;BMP280;51849;47.476;8.084;2022-09-29T05:29:28;94969.78;;;9.42
65180;BMP280;51849;47.476;8.084;2022-09-29T05:31:54;94973.06;;;9.42
65180;BMP280;51849;47.476;8.084;2022-09-29T05:34:20;94976.13;;;9.28
65180;BMP280;51849;47.476;8.084;2022-09-29T05:36:45;94977.19;;;9.38
65180;BMP280;51849;47.476;8.084;2022-09-29T05:39:11;94979.69;;;9.43
65180;BMP280;51849;47.476;8.084;2022-09-29T05:41:37;94982.91;;;9.49
65180;BMP280;51849;47.476;8.084;2022-09-29T05:44:03;94979.81;;;9.51
65180;BMP280;51849;47.476;8.084;2022-09-29T05:46:29;94982.00;;;9.47
65180;BMP280;51849;47.476;8.084;2022-09-29T05:48:55;94986.44;;;9.52
65180;BMP280;51849;47.476;8.084;2022-09-29T05:51:23;94987.72;;;9.45
65180;BMP280;51849;47.476;8.084;2022-09-29T05:53:51;94993.53;;;9.51
65180;BMP280;51849;47.476;8.084;2022-09-29T05:56:20;94986.84;;;9.56
65180;BMP280;51849;47.476;8.084;2022-09-29T05:58:46;94991.03;;;9.59
65180;BMP280;51849;47.476;8.084;2022-09-29T06:01:17;94986.28;;;9.63
65180;BMP280;51849;47.476;8.084;2022-09-29T06:03:43;94986.97;;;9.63
65180;BMP280;51849;47.476;8.084;2022-09-29T06:08:36;94993.25;;;9.55
65180;BMP280;51849;47.476;8.084;2022-09-29T06:11:13;94997.78;;;9.67
65180;BMP280;51849;47.476;8.084;2022-09-29T06:13:42;94990.50;;;9.66
65180;BMP280;51849;47.476;8.084;2022-09-29T06:16:09;94998.09;;;9.64
65180;BMP280;51849;47.476;8.084;2022-09-29T06:18:35;94995.28;;;9.62
65180;BMP280;51849;47.476;8.084;2022-09-29T06:21:02;94988.75;;;9.55
65180;BMP280;51849;47.476;8.084;2022-09-29T06:23:31;95004.06;;;9.59
65180;BMP280;51849;47.476;8.084;2022-09-29T06:25:58;95002.09;;;9.65
65180;BMP280;51849;47.476;8.084;2022-09-29T06:28:24;94993.09;;;9.66
65180;BMP280;51849;47.476;8.084;2022-09-29T06:30:50;94987.66;;;9.64
65180;BMP280;51849;47.476;8.084;2022-09-29T06:33:16;94986.66;;;9.67
65180;BMP280;51849;47.476;8.084;2022-09-29T06:35:46;94997.50;;;9.71
65180;BMP280;51849;47.476;8.084;2022-09-29T06:38:31;94989.91;;;9.73
65180;BMP280;51849;47.476;8.084;2022-09-29T06:40:57;95000.31;;;9.73
65180;BMP280;51849;47.476;8.084;2022-09-29T06:43:22;94988.00;;;9.73
65180;BMP280;51849;47.476;8.084;2022-09-29T06:45:48;94990.13;;;9.75
65180;BMP280;51849;47.476;8.084;2022-09-29T06:48:14;94989.91;;;9.73
65180;BMP280;51849;47.476;8.084;2022-09-29T06:50:39;94994.63;;;9.74
65180;BMP280;51849;47.476;8.084;2022-09-29T06:53:05;94988.41;;;9.77
65180;BMP280;51849;47.476;8.084;2022-09-29T06:55:31;94988.91;;;9.76
65180;BMP280;51849;47.476;8.084;2022-09-29T06:57:57;94990.78;;;9.75
65180;BMP280;51849;47.476;8.084;2022-09-29T07:00:22;94991.44;;;9.81
65180;BMP280;51849;47.476;8.084;2022-09-29T07:02:48;94995.13;;;9.86
65180;BMP280;51849;47.476;8.084;2022-09-29T07:05:16;94995.75;;;9.92
65180;BMP280;51849;47.476;8.084;2022-09-29T07:07:41;95004.97;;;9.93
65180;BMP280;51849;47.476;8.084;2022-09-29T07:10:07;94997.56;;;9.97
65180;BMP280;51849;47.476;8.084;2022-09-29T07:12:34;94998.78;;;9.96
65180;BMP280;51849;47.476;8.084;2022-09-29T07:14:59;95001.78;;;10.00
65180;BMP280;51849;47.476;8.084;2022-09-29T07:17:25;95000.50;;;10.07
65180;BMP280;51849;47.476;8.084;2022-09-29T07:19:51;95005.00;;;10.06
65180;BMP280;51849;47.476;8.084;2022-09-29T07:22:19;95008.19;;;10.12
65180;BMP280;51849;47.476;8.084;2022-09-29T07:24:47;95003.09;;;10.20
65180;BMP280;51849;47.476;8.084;2022-09-29T07:27:15;95013.94;;;10.24
65180;BMP280;51849;47.476;8.084;2022-09-29T07:29:45;95011.03;;;10.27
65180;BMP280;51849;47.476;8.084;2022-09-29T07:32:11;95011.25;;;10.29
65180;BMP280;51849;47.476;8.084;2022-09-29T07:34:39;95023.97;;;10.33
65180;BMP280;51849;47.476;8.084;2022-09-29T07:37:05;95022.06;;;10.33
65180;BMP280;51849;47.476;8.084;2022-09-29T07:39:31;95023.44;;;10.34
65180;BMP280;51849;47.476;8.084;2022-09-29T07:41:57;95021.75;;;10.37
65180;BMP280;51849;47.476;8.084;2022-09-29T07:44:23;95029.09;;;10.38
65180;BMP280;51849;47.476;8.084;2022-09-29T07:46:49;95028.81;;;10.42
65180;BMP280;51849;47.476;8.084;2022-09-29T07:49:14;95036.41;;;10.40
65180;BMP280;51849;47.476;8.084;2022-09-29T07:51:40;95032.28;;;10.44
65180;BMP280;51849;47.476;8.084;2022-09-29T07:54:06;95038.41;;;10.47
65180;BMP280;51849;47.476;8.084;2022-09-29T07:56:32;95032.88;;;10.50
65180;BMP280;51849;47.476;8.084;2022-09-29T07:59:00;95039.72;;;10.53
65180;BMP280;51849;47.476;8.084;2022-09-29T08:01:27;95035.81;;;10.47
65180;BMP280;51849;47.476;8.084;2022-09-29T08:03:54;95037.72;;;10.46
65180;BMP280;51849;47.476;8.084;2022-09-29T08:06:21;95036.34;;;10.58
65180;BMP280;51849;47.476;8.084;2022-09-29T08:08:48;95034.72;;;10.55
65180;BMP280;51849;47.476;8.084;2022-09-29T08:11:16;95041.56;;;10.58
65180;BMP280;51849;47.476;8.084;2022-09-29T08:13:43;95049.03;;;10.62
65180;BMP280;51849;47.476;8.084;2022-09-29T08:16:12;95046.75;;;10.58
65180;BMP280;51849;47.476;8.084;2022-09-29T08:18:39;95048.75;;;10.65
65180;BMP280;51849;47.476;8.084;2022-09-29T08:21:05;95058.78;;;10.74
65180;BMP280;51849;47.476;8.084;2022-09-29T08:23:35;95062.78;;;10.75
65180;BMP280;51849;47.476;8.084;2022-09-29T08:26:04;95074.41;;;10.74
65180;BMP280;51849;47.476;8.084;2022-09-29T08:28:31;95069.63;;;10.78
65180;BMP280;51849;47.476;8.084;2022-09-29T08:31:05;95080.63;;;10.84
65180;BMP280;51849;47.476;8.084;2022-09-29T08:33:33;95075.28;;;10.90
65180;BMP280;51849;47.476;8.084;2022-09-29T08:36:00;95084.03;;;10.92
65180;BMP280;51849;47.476;8.084;2022-09-29T08:38:26;95084.75;;;10.93
65180;BMP280;51849;47.476;8.084;2022-09-29T08:40:56;95088.06;;;10.93
65180;BMP280;51849;47.476;8.084;2022-09-29T08:43:35;95099.47;;;11.04
65180;BMP280;51849;47.476;8.084;2022-09-29T08:48:50;95098.88;;;11.11
65180;BMP280;51849;47.476;8.084;2022-09-29T08:51:36;95095.97;;;11.01
65180;BMP280;51849;47.476;8.084;2022-09-29T08:54:23;95102.28;;;11.06
65180;BMP280;51849;47.476;8.084;2022-09-29T08:56:50;95102.09;;;11.04
65180;BMP280;51849;47.476;8.084;2022-09-29T08:59:15;95089.34;;;11.00
65180;BMP280;51849;47.476;8.084;2022-09-29T09:07:09;95109.31;;;11.11
65180;BMP280;51849;47.476;8.084;2022-09-29T09:10:16;95104.69;;;11.17
65180;BMP280;51849;47.476;8.084;2022-09-29T09:17:58;95112.31;;;11.28
65180;BMP280;51849;47.476;8.084;2022-09-29T09:23:21;95117.78;;;11.37
65180;BMP280;51849;47.476;8.084;2022-09-29T09:25:54;95113.28;;;11.38
65180;BMP280;51849;47.476;8.084;2022-09-29T09:28:29;95112.50;;;11.43
65180;BMP280;51849;47.476;8.084;2022-09-29T09:36:12;95119.13;;;11.31
65180;BMP280;51849;47.476;8.084;2022-09-29T09:38:58;95112.28;;;11.41
65180;BMP280;51849;47.476;8.084;2022-09-29T09:41:25;95115.44;;;11.60
65180;BMP280;51849;47.476;8.084;2022-09-29T09:43:57;95111.38;;;11.72
65180;BMP280;51849;47.476;8.084;2022-09-29T09:46:39;95121.28;;;11.53
65180;BMP280;51849;47.476;8.084;2022-09-29T09:49:31;95118.56;;;11.58
65180;BMP280;51849;47.476;8.084;2022-09-29T09:52:10;95120.03;;;11.67
65180;BMP280;51849;47.476;8.084;2022-09-29T09:54:39;95121.16;;;11.71
65180;BMP280;51849;47.476;8.084;2022-09-29T10:02:51;95109.59;;;11.87
65180;BMP280;51849;47.476;8.084;2022-09-29T10:05:56;95112.50;;;11.97
65180;BMP280;51849;47.476;8.084;2022-09-29T10:08:23;95115.03;;;12.10
65180;BMP280;51849;47.476;8.084;2022-09-29T10:10:54;95113.53;;;12.14
65180;BMP280;51849;47.476;8.084;2022-09-29T10:13:27;95118.34;;;12.10
65180;BMP280;51849;47.476;8.084;2022-09-29T10:16:21;95116.56;;;12.05
65180;BMP280;51849;47.476;8.084;2022-09-29T10:18:49;95114.75;;;12.13
65180;BMP280;51849;47.476;8.084;2022-09-29T10:23:55;95115.50;;;12.22
65180;BMP280;51849;47.476;8.084;2022-09-29T10:26:43;95119.94;;;12.34
65180;BMP280;51849;47.476;8.084;2022-09-29T10:32:24;95125.47;;;12.51
65180;BMP280;51849;47.476;8.084;2022-09-29T10:35:25;95121.13;;;12.54
65180;BMP280;51849;47.476;8.084;2022-09-29T10:38:03;95119.72;;;12.53
65180;BMP280;51849;47.476;8.084;2022-09-29T10:40:30;95119.13;;;12.67
65180;BMP280;51849;47.476;8.084;2022-09-29T10:42:56;95123.28;;;12.63
65180;BMP280;51849;47.476;8.084;2022-09-29T10:45:28;95121.97;;;12.77
65180;BMP280;51849;47.476;8.084;2022-09-29T10:50:33;95121.53;;;12.65
65180;BMP280;51849;47.476;8.084;2022-09-29T10:53:05;95115.75;;;12.87
65180;BMP280;51849;47.476;8.084;2022-09-29T10:55:49;95125.66;;;12.81
65180;BMP280;51849;47.476;8.084;2022-09-29T10:58:32;95118.34;;;12.87
65180;BMP280;51849;47.476;8.084;2022-09-29T11:01:10;95112.19;;;12.77
65180;BMP280;51849;47.476;8.084;2022-09-29T11:03:47;95118.53;;;12.89
65180;BMP280;51849;47.476;8.084;2022-09-29T11:06:14;95111.63;;;12.99
65180;BMP280;51849;47.476;8.084;2022-09-29T11:09:34;95113.00;;;13.00
65180;BMP280;51849;47.476;8.084;2022-09-29T11:11:54;95116.50;;;13.03
65180;BMP280;51849;47.476;8.084;2022-09-29T11:14:25;95115.69;;;13.08
65180;BMP280;51849;47.476;8.084;2022-09-29T11:16:58;95119.00;;;13.08
65180;BMP280;51849;47.476;8.084;2022-09-29T11:19:24;95126.28;;;13.02
65180;BMP280;51849;47.476;8.084;2022-09-29T11:33:32;95119.75;;;13.31
65180;BMP280;51849;47.476;8.084;2022-09-29T11:38:31;95121.13;;;13.25
65180;BMP280;51849;47.476;8.084;2022-09-29T11:41:14;95125.91;;;13.34
65180;BMP280;51849;47.476;8.084;2022-09-29T11:43:49;95127.47;;;13.37
65180;BMP280;51849;47.476;8.084;2022-09-29T11:46:33;95124.53;;;13.48
65180;BMP280;51849;47.476;8.084;2022-09-29T11:57:33;95130.09;;;13.44
65180;BMP280;51849;47.476;8.084;2022-09-29T12:00:20;95130.00;;;13.58
65180;BMP280;51849;47.476;8.084;2022-09-29T12:08:17;95129.56;;;13.31
65180;BMP280;51849;47.476;8.084;2022-09-29T12:14:06;95114.28;;;13.65
65180;BMP280;51849;47.476;8.084;2022-09-29T12:16:38;95112.91;;;13.72
65180;BMP280;51849;47.476;8.084;2022-09-29T12:19:14;95109.03;;;13.58
65180;BMP280;51849;47.476;8.084;2022-09-29T12:21:46;95110.63;;;13.76
65180;BMP280;51849;47.476;8.084;2022-09-29T12:24:28;95119.72;;;13.75
65180;BMP280;51849;47.476;8.084;2022-09-29T12:26:55;95117.47;;;13.86
65180;BMP280;51849;47.476;8.084;2022-09-29T12:31:50;95116.19;;;13.72
65180;BMP280;51849;47.476;8.084;2022-09-29T12:36:58;95120.59;;;13.77
65180;BMP280;51849;47.476;8.084;2022-09-29T12:42:27;95112.00;;;13.69
65180;BMP280;51849;47.476;8.084;2022-09-29T12:45:12;95111.50;;;13.71
65180;BMP280;51849;47.476;8.084;2022-09-29T12:50:38;95117.06;;;13.67
65180;BMP280;51849;47.476;8.084;2022-09-29T12:53:14;95110.09;;;13.62
65180;BMP280;51849;47.476;8.084;2022-09-29T12:55:59;95119.38;;;13.71
65180;BMP280;51849;47.476;8.084;2022-09-29T12:58:40;95122.94;;;13.37
65180;BMP280;51849;47.476;8.084;2022-09-29T13:01:39;95118.97;;;13.51
65180;BMP280;51849;47.476;8.084;2022-09-29T13:04:19;95119.13;;;13.53
65180;BMP280;51849;47.476;8.084;2022-09-29T13:23:19;95112.34;;;13.50
65180;BMP280;51849;47.476;8.084;2022-09-29T13:28:55;95115.84;;;13.68
65180;BMP280;51849;47.476;8.084;2022-09-29T13:31:26;95117.09;;;13.75
65180;BMP280;51849;47.476;8.084;2022-09-29T13:33:58;95115.88;;;13.91
65180;BMP280;51849;47.476;8.084;2022-09-29T13:36:30;95113.47;;;14.08
65180;BMP280;51849;47.476;8.084;2022-09-29T13:39:01;95119.22;;;14.14
65180;BMP280;51849;47.476;8.084;2022-09-29T13:51:59;95126.22;;;14.04
65180;BMP280;51849;47.476;8.084;2022-09-29T13:54:33;95129.50;;;13.97
65180;BMP280;51849;47.476;8.084;2022-09-29T13:59:43;95131.25;;;13.87
65180;BMP280;51849;47.476;8.084;2022-09-29T14:02:29;95132.69;;;13.95
65180;BMP280;51849;47.476;8.084;2022-09-29T14:04:57;95134.03;;;13.81
65180;BMP280;51849;47.476;8.084;2022-09-29T14:07:46;95136.31;;;13.77
65180;BMP280;51849;47.476;8.084;2022-09-29T14:12:49;95132.47;;;13.93
65180;BMP280;51849;47.476;8.084;2022-09-29T14:15:19;95129.34;;;13.95
65180;BMP280;51849;47.476;8.084;2022-09-29T14:17:53;95129.50;;;13.89
65180;BMP280;51849;47.476;8.084;2022-09-29T14:20:29;95131.75;;;13.85
65180;BMP280;51849;47.476;8.084;2022-09-29T14:22:59;95128.44;;;13.85
65180;BMP280;51849;47.476;8.084;2022-09-29T14:28:09;95136.84;;;13.83
65180;BMP280;51849;47.476;8.084;2022-09-29T14:30:41;95137.72;;;13.78
65180;BMP280;51849;47.476;8.084;2022-09-29T14:46:49;95159.53;;;13.66
65180;BMP280;51849;47.476;8.084;2022-09-29T14:55:14;95161.34;;;13.42
65180;BMP280;51849;47.476;8.084;2022-09-29T15:03:45;95165.28;;;13.21
65180;BMP280;51849;47.476;8.084;2022-09-29T15:06:18;95170.63;;;13.08
65180;BMP280;51849;47.476;8.084;2022-09-29T15:14:26;95166.16;;;13.23
65180;BMP280;51849;47.476;8.084;2022-09-29T15:27:58;95171.81;;;13.35
65180;BMP280;51849;47.476;8.084;2022-09-29T15:30:25;95178.78;;;13.32
65180;BMP280;51849;47.476;8.084;2022-09-29T15:32:52;95176.34;;;13.34
65180;BMP280;51849;47.476;8.084;2022-09-29T15:35:23;95176.53;;;13.36
65180;BMP280;51849;47.476;8.084;2022-09-29T15:40:25;95173.31;;;13.23
65180;BMP280;51849;47.476;8.084;2022-09-29T15:42:52;95176.28;;;13.19
65180;BMP280;51849;47.476;8.084;2022-09-29T15:45:22;95178.72;;;13.17
65180;BMP280;51849;47.476;8.084;2022-09-29T15:48:01;95186.75;;;13.19
65180;BMP280;51849;47.476;8.084;2022-09-29T15:50:31;95184.13;;;13.19
65180;BMP280;51849;47.476;8.084;2022-09-29T15:53:00;95189.88;;;13.18
65180;BMP280;51849;47.476;8.084;2022-09-29T15:55:29;95194.22;;;13.15
65180;BMP280;51849;47.476;8.084;2022-09-29T15:57:55;95194.72;;;13.06
65180;BMP280;51849;47.476;8.084;2022-09-29T16:05:51;95205.94;;;12.86
65180;BMP280;51849;47.476;8.084;2022-09-29T16:08:20;95215.88;;;12.88
65180;BMP280;51849;47.476;8.084;2022-09-29T16:10:54;95214.13;;;12.90
65180;BMP280;51849;47.476;8.084;2022-09-29T16:13:25;95217.66;;;12.93
65180;BMP280;51849;47.476;8.084;2022-09-29T16:15:56;95216.59;;;12.88
65180;BMP280;51849;47.476;8.084;2022-09-29T16:20:50;95219.09;;;12.73
65180;BMP280;51849;47.476;8.084;2022-09-29T16:23:23;95217.44;;;12.63
65180;BMP280;51849;47.476;8.084;2022-09-29T16:28:30;95204.16;;;12.61
65180;BMP280;51849;47.476;8.084;2022-09-29T16:31:19;95219.84;;;12.61
65180;BMP280;51849;47.476;8.084;2022-09-29T16:33:53;95217.13;;;12.66
65180;BMP280;51849;47.476;8.084;2022-09-29T16:36:37;95217.81;;;12.67
65180;BMP280;51849;47.476;8.084;2022-09-29T16:39:04;95229.81;;;12.62
65180;BMP280;51849;47.476;8.084;2022-09-29T16:41:35;95222.84;;;12.44
65180;BMP280;51849;47.476;8.084;2022-09-29T16:47:11;95237.66;;;12.42
65180;BMP280;51849;47.476;8.084;2022-09-29T16:54:40;95257.09;;;12.33
65180;BMP280;51849;47.476;8.084;2022-09-29T16:57:25;95258.50;;;12.34
65180;BMP280;51849;47.476;8.084;2022-09-29T16:59:54;95259.13;;;12.27
65180;BMP280;51849;47.476;8.084;2022-09-29T17:02:21;95267.75;;;12.35
65180;BMP280;51849;47.476;8.084;2022-09-29T17:32:20;95308.84;;;11.88
65180;BMP280;51849;47.476;8.084;2022-09-29T17:34:48;95307.84;;;11.91
65180;BMP280;51849;47.476;8.084;2022-09-29T17:37:13;95311.38;;;11.80
65180;BMP280;51849;47.476;8.084;2022-09-29T17:39:44;95308.47;;;11.84
65180;BMP280;51849;47.476;8.084;2022-09-29T17:42:10;95321.31;;;11.82
65180;BMP280;51849;47.476;8.084;2022-09-29T17:44:37;95317.28;;;11.81
65180;BMP280;51849;47.476;8.084;2022-09-29T17:47:12;95324.53;;;11.75
65180;BMP280;51849;47.476;8.084;2022-09-29T17:49:39;95327.72;;;11.81
65180;BMP280;51849;47.476;8.084;2022-09-29T17:52:06;95327.03;;;11.80
65180;BMP280;51849;47.476;8.084;2022-09-29T17:54:34;95329.75;;;11.75
65180;BMP280;51849;47.476;8.084;2022-09-29T17:57:02;95336.41;;;11.76
65180;BMP280;51849;47.476;8.084;2022-09-29T17:59:28;95334.09;;;11.72
65180;BMP280;51849;47.476;8.084;2022-09-29T18:01:56;95330.34;;;11.68
65180;BMP280;51849;47.476;8.084;2022-09-29T18:04:22;95338.38;;;11.70
65180;BMP280;51849;47.476;8.084;2022-09-29T18:06:50;95334.88;;;11.67
65180;BMP280;51849;47.476;8.084;2022-09-29T18:09:17;95333.09;;;11.62
65180;BMP280;51849;47.476;8.084;2022-09-29T18:11:43;95330.94;;;11.61
65180;BMP280;51849;47.476;8.084;2022-09-29T18:14:09;95334.19;;;11.54
65180;BMP280;51849;47.476;8.084;2022-09-29T18:16:37;95324.41;;;11.54
65180;BMP280;51849;47.476;8.084;2022-09-29T18:19:09;95325.34;;;11.57
65180;BMP280;51849;47.476;8.084;2022-09-29T18:21:41;95327.16;;;11.49
65180;BMP280;51849;47.476;8.084;2022-09-29T18:24:07;95332.38;;;11.49
65180;BMP280;51849;47.476;8.084;2022-09-29T18:26:35;95334.97;;;11.49
65180;BMP280;51849;47.476;8.084;2022-09-29T18:29:12;95330.94;;;11.35
65180;BMP280;51849;47.476;8.084;2022-09-29T18:31:38;95339.59;;;11.43